createdAt,value
2019-05-13T00:00:23.398Z,31.20
2019-05-13T00:02:54.410Z,30.30
2019-05-13T00:05:25.347Z,29.90
2019-05-13T00:07:56.120Z,29.80
2019-05-13T00:10:26.829Z,29.30
2019-05-13T00:12:57.224Z,28.70
2019-05-13T00:15:27.612Z,28.80
2019-05-13T00:17:57.951Z,28.70
2019-05-13T00:20:28.678Z,28.60
2019-05-13T00:22:59.051Z,28.20
2019-05-13T00:25:29.708Z,28.50
2019-05-13T00:28:00.445Z,29.20
2019-05-13T00:30:30.809Z,28.80
2019-05-13T00:33:03.464Z,29.00
2019-05-13T00:35:34.105Z,29.10
2019-05-13T00:38:04.552Z,29.30
2019-05-13T00:40:35.292Z,29.60
2019-05-13T00:43:05.893Z,29.50
2019-05-13T00:45:36.754Z,29.60
2019-05-13T00:48:07.311Z,30.20
2019-05-13T00:50:37.653Z,29.80
2019-05-13T00:53:08.267Z,29.40
2019-05-13T00:55:38.634Z,29.50
2019-05-13T00:58:10.978Z,29.80
2019-05-13T01:00:44.198Z,29.80
2019-05-13T01:03:14.952Z,29.80
2019-05-13T01:05:45.691Z,29.80
2019-05-13T01:08:16.321Z,30.10
2019-05-13T01:10:46.671Z,30.30
2019-05-13T01:13:17.079Z,30.50
2019-05-13T01:15:47.797Z,30.80
2019-05-13T01:18:18.410Z,31.40
2019-05-13T01:21:08.451Z,31.60
2019-05-13T01:23:38.864Z,32.10
2019-05-13T01:26:09.191Z,32.00
2019-05-13T01:28:39.914Z,32.50
2019-05-13T01:31:13.124Z,33.00
2019-05-13T01:33:44.548Z,33.30
2019-05-13T01:36:15.411Z,33.60
2019-05-13T01:38:45.784Z,34.10
2019-05-13T01:41:16.305Z,34.40
2019-05-13T01:43:46.658Z,34.90
2019-05-13T01:46:17.326Z,35.00
2019-05-13T01:48:48.080Z,35.20
2019-05-13T01:51:37.839Z,35.30
2019-05-13T01:54:08.501Z,35.90
2019-05-13T01:56:39.110Z,36.50
2019-05-13T01:59:09.857Z,36.50
2019-05-13T02:01:40.193Z,36.60
2019-05-13T02:04:10.579Z,36.50
2019-05-13T02:06:41.277Z,37.10
2019-05-13T02:09:14.017Z,37.30
2019-05-13T02:11:46.559Z,37.40
2019-05-13T02:14:16.367Z,37.70
2019-05-13T02:16:47.041Z,37.90
2019-05-13T02:19:17.380Z,38.30
2019-05-13T02:21:47.748Z,38.60
2019-05-13T02:24:18.137Z,39.00
2019-05-13T02:26:48.476Z,39.00
2019-05-13T02:29:18.873Z,39.10
2019-05-13T02:31:55.183Z,39.30
2019-05-13T02:34:23.284Z,39.50
2019-05-13T02:36:53.885Z,39.80
2019-05-13T02:39:24.628Z,40.10
2019-05-13T02:41:55.017Z,40.40
2019-05-13T02:44:25.355Z,40.50
2019-05-13T02:46:56.155Z,41.00
2019-05-13T02:49:27.128Z,40.90
2019-05-13T02:51:57.841Z,40.90
2019-05-13T02:54:28.287Z,41.30
2019-05-13T02:56:59.142Z,41.20
2019-05-13T02:59:29.515Z,42.30
2019-05-13T03:02:03.260Z,42.50
2019-05-13T03:04:32.818Z,42.50
2019-05-13T03:07:03.405Z,42.70
2019-05-13T03:09:33.772Z,43.00
2019-05-13T03:12:04.841Z,43.70
2019-05-13T03:14:35.574Z,43.90
2019-05-13T03:17:07.894Z,43.90
2019-05-13T03:19:38.311Z,43.90
2019-05-13T03:22:08.674Z,44.10
2019-05-13T03:24:39.030Z,44.10
2019-05-13T03:27:12.495Z,44.30
2019-05-13T03:29:43.223Z,44.30
2019-05-13T03:32:16.251Z,44.50
2019-05-13T03:34:46.539Z,44.60
2019-05-13T03:37:17.088Z,45.00
2019-05-13T03:39:47.996Z,45.20
2019-05-13T03:42:18.410Z,45.20
2019-05-13T03:44:52.265Z,45.30
2019-05-13T03:47:23.100Z,45.20
2019-05-13T03:49:58.380Z,45.30
2019-05-13T03:52:28.982Z,45.30
2019-05-13T03:55:02.872Z,45.40
2019-05-13T03:57:33.774Z,45.40
2019-05-13T04:00:06.029Z,45.40
2019-05-13T04:02:36.447Z,46.00
2019-05-13T04:05:06.845Z,45.60
2019-05-13T04:07:37.199Z,45.40
2019-05-13T04:10:07.939Z,45.80
2019-05-13T04:12:38.627Z,45.70
2019-05-13T04:15:12.522Z,45.90
2019-05-13T04:17:42.919Z,46.10
2019-05-13T04:20:13.644Z,46.20
2019-05-13T04:22:44.428Z,46.80
2019-05-13T04:25:14.817Z,46.10
2019-05-13T04:27:45.625Z,46.40
2019-05-13T04:30:16.493Z,46.40
2019-05-13T04:32:47.582Z,46.20
2019-05-13T04:35:17.953Z,46.30
2019-05-13T04:37:48.641Z,46.50
2019-05-13T04:40:22.636Z,46.50
2019-05-13T04:42:53.620Z,46.70
2019-05-13T04:45:24.421Z,47.50
2019-05-13T04:47:55.114Z,46.60
2019-05-13T04:50:25.823Z,46.70
2019-05-13T04:52:56.534Z,46.30
2019-05-13T04:55:27.485Z,45.90
2019-05-13T04:57:58.205Z,46.30
2019-05-13T05:01:02.106Z,46.40
2019-05-13T05:03:53.214Z,47.00
2019-05-13T05:06:33.320Z,47.10
2019-05-13T05:09:23.295Z,46.50
2019-05-13T05:12:24.225Z,46.40
2019-05-13T05:15:17.597Z,47.00
2019-05-13T05:18:05.143Z,47.20
2019-05-13T05:21:05.698Z,47.30
2019-05-13T05:23:57.968Z,46.70
2019-05-13T05:27:16.162Z,46.50
2019-05-13T05:30:11.366Z,46.30
2019-05-13T05:32:52.238Z,46.40
2019-05-13T05:35:52.069Z,46.40
2019-05-13T05:38:43.384Z,46.90
2019-05-13T05:41:16.775Z,46.60
2019-05-13T05:43:47.177Z,46.50
2019-05-13T05:46:17.810Z,46.70
2019-05-13T05:48:50.717Z,45.80
2019-05-13T05:51:22.150Z,46.50
2019-05-13T05:53:52.599Z,45.70
2019-05-13T05:56:23.571Z,45.30
2019-05-13T05:58:54.343Z,45.30
2019-05-13T06:01:25.057Z,45.50
2019-05-13T06:03:55.764Z,45.90
2019-05-13T06:06:27.167Z,45.60
2019-05-13T06:09:17.404Z,45.40
2019-05-13T06:11:47.784Z,45.10
2019-05-13T06:14:18.161Z,45.10
2019-05-13T06:16:48.794Z,45.20
2019-05-13T06:19:19.536Z,44.80
2019-05-13T06:21:51.346Z,45.30
2019-05-13T06:24:26.133Z,44.90
2019-05-13T06:26:53.889Z,44.30
2019-05-13T06:29:24.610Z,44.50
2019-05-13T06:31:55.096Z,44.30
2019-05-13T06:34:25.462Z,43.50
2019-05-13T06:36:55.852Z,42.90
2019-05-13T06:39:26.217Z,42.70
2019-05-13T06:41:56.605Z,42.00
2019-05-13T06:44:27.350Z,41.70
2019-05-13T06:46:57.756Z,40.90
2019-05-13T06:49:28.168Z,41.00
2019-05-13T06:52:01.449Z,40.20
2019-05-13T06:54:32.920Z,40.40
2019-05-13T06:57:05.489Z,40.00
2019-05-13T06:59:36.064Z,39.30
2019-05-13T07:02:06.442Z,39.20
2019-05-13T07:04:36.855Z,39.30
2019-05-13T07:07:13.117Z,40.50
2019-05-13T07:09:39.257Z,39.10
2019-05-13T07:12:11.375Z,38.80
2019-05-13T07:14:41.862Z,39.10
2019-05-13T07:17:12.590Z,38.50
2019-05-13T07:19:43.321Z,38.00
2019-05-13T07:22:13.740Z,37.20
2019-05-13T07:24:44.080Z,37.30
2019-05-13T07:27:14.489Z,36.70
2019-05-13T07:29:44.832Z,35.90
2019-05-13T07:32:15.621Z,34.80
2019-05-13T07:34:45.991Z,35.30
2019-05-13T07:37:16.324Z,33.30
2019-05-13T07:39:46.970Z,33.70
2019-05-13T07:42:18.016Z,33.30
2019-05-13T07:44:49.093Z,33.20
2019-05-13T07:47:22.065Z,33.30
2019-05-13T07:50:12.759Z,33.30
2019-05-13T07:52:42.930Z,29.60
2019-05-13T07:55:18.427Z,30.50
2019-05-13T07:57:51.379Z,28.50
2019-05-13T08:00:21.887Z,27.90
2019-05-13T08:02:52.810Z,28.30
2019-05-13T08:05:23.211Z,27.90
2019-05-13T08:07:53.588Z,27.50
2019-05-13T08:10:24.002Z,27.20
2019-05-13T08:12:54.387Z,26.30
2019-05-13T08:15:25.362Z,24.70
2019-05-13T08:17:55.727Z,24.70
2019-05-13T08:20:26.491Z,23.60
2019-05-13T08:22:57.569Z,21.10
2019-05-13T08:25:28.304Z,20.80
2019-05-13T08:27:58.669Z,22.40
2019-05-13T08:30:31.703Z,22.80
2019-05-13T08:33:02.006Z,22.60
2019-05-13T08:35:32.770Z,21.30
2019-05-13T08:38:03.132Z,19.50
2019-05-13T08:40:33.837Z,20.40
2019-05-13T08:43:06.726Z,18.90
2019-05-13T08:45:36.667Z,18.20
2019-05-13T08:48:07.069Z,20.30
2019-05-13T08:50:37.414Z,20.40
2019-05-13T08:53:07.847Z,20.10
2019-05-13T08:55:42.214Z,19.80
2019-05-13T08:58:12.701Z,20.00
2019-05-13T09:01:02.971Z,20.30
2019-05-13T09:03:33.630Z,19.30
2019-05-13T09:06:04.374Z,19.20
2019-05-13T09:08:34.737Z,19.40
2019-05-13T09:11:05.516Z,18.80
2019-05-13T09:13:35.897Z,18.80
2019-05-13T09:16:21.285Z,16.90
2019-05-13T09:18:52.082Z,17.10
2019-05-13T09:21:22.683Z,17.80
2019-05-13T09:23:53.008Z,19.10
2019-05-13T09:26:23.374Z,18.30
2019-05-13T09:28:54.142Z,16.10
2019-05-13T09:31:24.533Z,15.50
2019-05-13T09:33:55.263Z,15.50
2019-05-13T09:36:26.283Z,15.70
2019-05-13T09:38:57.016Z,15.10
2019-05-13T09:41:27.836Z,14.70
2019-05-13T09:43:58.243Z,15.20
2019-05-13T09:46:28.961Z,15.30
2019-05-13T09:49:12.942Z,17.50
2019-05-13T09:51:32.438Z,18.20
2019-05-13T09:54:03.288Z,18.50
2019-05-13T09:56:34.048Z,18.80
2019-05-13T09:59:04.826Z,18.10
2019-05-13T10:01:35.446Z,17.50
2019-05-13T10:04:07.134Z,17.50
2019-05-13T10:06:37.606Z,18.20
2019-05-13T10:09:08.242Z,17.70
2019-05-13T10:11:38.610Z,17.50
2019-05-13T10:14:11.317Z,18.20
2019-05-13T10:16:42.525Z,17.90
2019-05-13T10:19:13.179Z,18.20
2019-05-13T10:21:43.538Z,19.20
2019-05-13T10:24:14.317Z,18.70
2019-05-13T10:26:45.052Z,18.90
2019-05-13T10:29:15.785Z,18.90
2019-05-13T10:31:46.272Z,18.60
2019-05-13T10:34:16.615Z,18.90
2019-05-13T10:36:47.353Z,18.80
2019-05-13T10:39:17.733Z,19.40
2019-05-13T10:41:48.099Z,18.60
2019-05-13T10:44:18.736Z,18.40
2019-05-13T10:46:52.041Z,18.40
2019-05-13T10:49:22.329Z,18.90
2019-05-13T10:51:53.113Z,19.30
2019-05-13T10:54:23.824Z,19.50
2019-05-13T10:56:58.943Z,19.50
2019-05-13T10:59:27.077Z,19.10
2019-05-13T11:01:58.222Z,19.00
2019-05-13T11:04:28.756Z,18.40
2019-05-13T11:07:02.361Z,18.30
2019-05-13T11:09:32.674Z,18.30
2019-05-13T11:12:04.091Z,18.50
2019-05-13T11:14:34.518Z,18.00
2019-05-13T11:17:05.144Z,16.90
2019-05-13T11:19:37.118Z,16.20
2019-05-13T11:22:08.197Z,16.90
2019-05-13T11:24:39.363Z,16.90
2019-05-13T11:27:11.943Z,16.30
2019-05-13T11:29:42.066Z,14.90
2019-05-13T11:32:13.394Z,15.10
2019-05-13T11:34:44.252Z,14.40
2019-05-13T11:37:14.993Z,14.70
2019-05-13T11:39:45.513Z,14.90
2019-05-13T11:42:16.500Z,15.60
2019-05-13T11:44:47.245Z,15.80
2019-05-13T11:47:17.985Z,16.50
2019-05-13T11:49:48.400Z,16.70
2019-05-13T11:52:18.763Z,16.00
2019-05-13T11:54:49.145Z,16.10
2019-05-13T11:57:19.517Z,15.80
2019-05-13T11:59:52.635Z,16.00
2019-05-13T12:02:23.230Z,14.90
2019-05-13T12:04:54.286Z,15.60
2019-05-13T12:07:25.091Z,15.50
2019-05-13T12:09:55.446Z,15.50
2019-05-13T12:12:30.672Z,15.50
2019-05-13T12:15:22.503Z,15.30
2019-05-13T12:17:33.934Z,14.60
2019-05-13T12:20:03.499Z,14.30
2019-05-13T12:22:34.476Z,14.80
2019-05-13T12:25:07.381Z,15.40
2019-05-13T12:27:38.134Z,15.00
2019-05-13T12:30:08.481Z,15.60
2019-05-13T12:32:43.471Z,15.10
2019-05-13T12:35:13.382Z,14.20
2019-05-13T12:37:43.527Z,15.30
2019-05-13T12:40:14.271Z,14.70
2019-05-13T12:42:47.276Z,15.20
2019-05-13T12:45:16.765Z,15.70
2019-05-13T12:47:47.138Z,15.30
2019-05-13T12:50:17.551Z,15.00
2019-05-13T12:52:47.894Z,14.50
2019-05-13T12:55:18.653Z,14.60
2019-05-13T12:57:49.018Z,14.70
2019-05-13T13:00:23.312Z,14.70
2019-05-13T13:02:52.121Z,14.60
2019-05-13T13:05:24.779Z,14.40
2019-05-13T13:08:16.682Z,14.80
2019-05-13T13:10:27.166Z,13.90
2019-05-13T13:12:57.900Z,13.20
2019-05-13T13:15:38.232Z,12.70
2019-05-13T13:18:02.561Z,12.90
2019-05-13T13:20:35.530Z,13.10
2019-05-13T13:23:05.279Z,13.10
2019-05-13T13:25:35.624Z,13.20
2019-05-13T13:28:11.359Z,14.30
2019-05-13T13:30:38.874Z,14.90
2019-05-13T13:33:09.240Z,13.80
2019-05-13T13:35:44.069Z,14.40
2019-05-13T13:38:11.871Z,15.20
2019-05-13T13:40:45.562Z,14.40
2019-05-13T13:43:16.147Z,14.60
2019-05-13T13:48:19.096Z,14.80
2019-05-13T13:50:55.141Z,14.60
2019-05-13T13:55:55.950Z,16.00
2019-05-13T13:58:26.434Z,16.10
2019-05-13T14:01:07.217Z,16.00
2019-05-13T14:03:32.859Z,17.40
2019-05-13T14:07:13.476Z,15.80
2019-05-13T14:07:22.167Z,18.30
2019-05-13T14:08:53.325Z,19.00
2019-05-13T14:11:24.725Z,19.10
2019-05-13T14:13:55.472Z,19.10
2019-05-13T14:16:31.526Z,19.10
2019-05-13T14:18:58.045Z,19.10
2019-05-13T14:21:28.422Z,18.80
2019-05-13T14:23:59.192Z,19.40
2019-05-13T14:26:32.439Z,18.90
2019-05-13T14:29:02.905Z,19.00
2019-05-13T14:31:33.411Z,18.90
2019-05-13T14:34:04.226Z,19.00
2019-05-13T14:36:34.994Z,19.30
2019-05-13T14:39:07.296Z,18.70
2019-05-13T14:41:38.276Z,17.80
2019-05-13T14:44:09.015Z,16.20
2019-05-13T14:46:47.148Z,15.90
2019-05-13T14:49:12.409Z,16.80
2019-05-13T14:51:42.985Z,18.50
2019-05-13T14:54:13.644Z,18.90
2019-05-13T14:56:44.737Z,19.10
2019-05-13T14:59:15.203Z,19.60
2019-05-13T15:01:45.898Z,20.80
2019-05-13T15:04:16.607Z,20.10
2019-05-13T15:06:47.307Z,19.60
2019-05-13T15:09:18.007Z,19.00
2019-05-13T15:11:48.674Z,19.20
2019-05-13T15:14:21.768Z,18.50
2019-05-13T15:17:02.494Z,18.60
2019-05-13T15:19:24.216Z,17.90
2019-05-13T15:21:55.806Z,18.30
2019-05-13T15:24:26.772Z,17.60
2019-05-13T15:26:57.216Z,17.20
2019-05-13T15:29:27.618Z,17.20
2019-05-13T15:31:57.994Z,17.60
2019-05-13T15:34:28.731Z,17.20
2019-05-13T15:37:01.797Z,17.30
2019-05-13T15:39:31.764Z,17.40
2019-05-13T15:42:02.315Z,16.40
2019-05-13T15:44:32.977Z,16.80
2019-05-13T15:47:18.231Z,16.50
2019-05-13T15:49:36.224Z,16.80
2019-05-13T15:52:07.031Z,16.80
2019-05-13T15:54:37.394Z,17.20
2019-05-13T15:57:07.778Z,17.00
2019-05-13T15:59:38.177Z,15.60
2019-05-13T16:02:08.540Z,15.60
2019-05-13T16:04:50.089Z,16.60
2019-05-13T16:07:12.209Z,15.50
2019-05-13T16:09:42.831Z,15.20
2019-05-13T16:12:13.227Z,14.50
2019-05-13T16:14:43.602Z,14.20
2019-05-13T16:17:14.577Z,14.40
2019-05-13T16:19:45.239Z,14.40
2019-05-13T16:22:15.605Z,14.70
2019-05-13T16:24:45.991Z,15.30
2019-05-13T16:27:16.640Z,17.60
2019-05-13T16:29:47.689Z,18.80
2019-05-13T16:32:18.411Z,19.20
2019-05-13T16:34:51.629Z,19.20
2019-05-13T16:37:22.014Z,19.50
2019-05-13T16:39:52.902Z,19.60
2019-05-13T16:42:23.452Z,20.20
2019-05-13T16:44:53.860Z,20.10
2019-05-13T16:47:24.225Z,20.00
2019-05-13T16:49:54.568Z,20.70
2019-05-13T16:52:24.971Z,21.00
2019-05-13T16:54:55.427Z,21.00
2019-05-13T16:57:25.852Z,21.00
2019-05-13T16:59:56.584Z,20.80
2019-05-13T17:02:27.289Z,20.70
2019-05-13T17:04:58.022Z,20.40
2019-05-13T17:07:28.365Z,20.40
2019-05-13T17:10:01.088Z,20.90
2019-05-13T17:12:32.189Z,20.70
2019-05-13T17:15:03.123Z,20.70
2019-05-13T17:17:34.657Z,20.50
2019-05-13T17:20:07.908Z,20.40
2019-05-13T17:22:38.303Z,20.20
2019-05-13T17:25:08.674Z,21.00
2019-05-13T17:27:39.071Z,20.40
2019-05-13T17:30:11.430Z,20.60
2019-05-13T17:32:41.592Z,20.50
2019-05-13T17:35:11.947Z,20.00
2019-05-13T17:37:42.358Z,20.20
2019-05-13T17:40:12.717Z,20.30
2019-05-13T17:42:43.478Z,20.20
2019-05-13T17:45:14.229Z,20.10
2019-05-13T17:47:44.982Z,20.10
2019-05-13T17:50:15.364Z,20.20
2019-05-13T17:52:46.533Z,20.00
2019-05-13T17:55:16.922Z,19.80
2019-05-13T17:57:47.651Z,20.00
2019-05-13T18:00:18.398Z,19.90
2019-05-13T18:02:51.451Z,20.20
2019-05-13T18:05:22.549Z,20.00
2019-05-13T18:07:53.103Z,20.10
2019-05-13T18:10:23.794Z,20.20
2019-05-13T18:12:54.543Z,20.10
2019-05-13T18:15:24.937Z,20.50
2019-05-13T18:17:55.280Z,20.30
2019-05-13T18:20:27.171Z,20.20
2019-05-13T18:22:57.784Z,20.30
2019-05-13T18:25:28.736Z,20.40
2019-05-13T18:28:01.371Z,20.70
2019-05-13T18:30:31.892Z,20.80
2019-05-13T18:33:02.865Z,21.10
2019-05-13T18:35:33.507Z,21.30
2019-05-13T18:38:04.217Z,21.40
2019-05-13T18:40:34.823Z,22.00
2019-05-13T18:43:05.497Z,22.00
2019-05-13T18:45:35.833Z,21.90
2019-05-13T18:48:06.226Z,21.80
2019-05-13T18:50:36.596Z,22.30
2019-05-13T18:53:06.993Z,22.50
2019-05-13T18:55:38.335Z,23.30
2019-05-13T18:58:08.702Z,24.00
2019-05-13T19:00:39.041Z,24.60
2019-05-13T19:03:09.422Z,25.00
2019-05-13T19:05:42.229Z,25.20
2019-05-13T19:08:12.602Z,25.40
2019-05-13T19:10:43.321Z,25.80
2019-05-13T19:13:14.280Z,26.00
2019-05-13T19:15:44.990Z,26.30
2019-05-13T19:18:15.738Z,27.10
2019-05-13T19:20:46.158Z,26.50
2019-05-13T19:23:16.572Z,26.70
2019-05-13T19:25:47.338Z,26.70
2019-05-13T19:28:18.085Z,27.00
2019-05-13T19:30:48.803Z,26.90
2019-05-13T19:33:21.920Z,27.10
2019-05-13T19:35:51.873Z,27.20
2019-05-13T19:38:22.381Z,27.20
2019-05-13T19:40:53.114Z,27.60
2019-05-13T19:43:23.503Z,27.80
2019-05-13T19:45:53.900Z,27.50
2019-05-13T19:48:24.529Z,27.70
2019-05-13T19:50:57.888Z,28.40
2019-05-13T19:53:28.619Z,28.30
2019-05-13T19:56:01.342Z,28.30
2019-05-13T19:58:32.513Z,29.20
2019-05-13T20:01:03.325Z,28.80
2019-05-13T20:03:34.060Z,29.40
2019-05-13T20:06:05.251Z,28.80
2019-05-13T20:08:36.034Z,28.80
2019-05-13T20:11:06.441Z,29.20
2019-05-13T20:13:37.195Z,29.20
2019-05-13T20:16:08.098Z,28.90
2019-05-13T20:18:38.422Z,29.40
2019-05-13T20:21:11.222Z,30.30
2019-05-13T20:23:41.409Z,30.20
2019-05-13T20:26:11.950Z,31.30
2019-05-13T20:28:42.331Z,32.00
2019-05-13T20:31:13.344Z,31.70
2019-05-13T20:33:43.811Z,31.30
2019-05-13T20:36:14.648Z,32.20
2019-05-13T20:38:46.405Z,32.00
2019-05-13T20:41:16.773Z,31.70
2019-05-13T20:43:47.499Z,31.80
2019-05-13T20:46:17.888Z,32.40
2019-05-13T20:48:48.524Z,32.70
2019-05-13T20:51:19.149Z,32.80
2019-05-13T20:53:51.632Z,32.70
2019-05-13T20:56:21.699Z,33.30
2019-05-13T20:58:52.598Z,33.90
2019-05-13T21:01:23.382Z,34.10
2019-05-13T21:03:54.011Z,34.40
2019-05-13T21:06:24.428Z,34.60
2019-05-13T21:08:55.178Z,35.10
2019-05-13T21:11:38.097Z,35.10
2019-05-13T21:14:08.778Z,35.30
2019-05-13T21:16:41.511Z,35.40
2019-05-13T21:19:12.359Z,35.50
2019-05-13T21:21:43.489Z,35.90
2019-05-13T21:24:14.316Z,35.90
2019-05-13T21:26:51.199Z,36.60
2019-05-13T21:29:21.932Z,37.10
2019-05-13T21:31:52.960Z,37.00
2019-05-13T21:34:23.777Z,37.40
2019-05-13T21:36:54.181Z,37.00
2019-05-13T21:39:24.516Z,37.20
2019-05-13T21:41:55.315Z,37.70
2019-05-13T21:44:26.425Z,38.20
2019-05-13T21:46:56.796Z,38.20
2019-05-13T21:49:27.153Z,38.60
2019-05-13T21:51:58.442Z,39.00
2019-05-13T21:54:33.227Z,39.20
2019-05-13T21:57:02.371Z,39.40
2019-05-13T21:59:33.286Z,39.40
2019-05-13T22:02:04.028Z,39.50
2019-05-13T22:04:34.386Z,39.90
2019-05-13T22:07:05.012Z,39.90
2019-05-13T22:09:35.702Z,40.00
2019-05-13T22:12:06.072Z,39.70
2019-05-13T22:14:36.775Z,39.50
2019-05-13T22:17:07.206Z,39.60
2019-05-13T22:19:37.935Z,39.90
2019-05-13T22:22:08.288Z,39.70
2019-05-13T22:24:38.674Z,39.30
2019-05-13T22:27:10.942Z,39.30
2019-05-13T22:29:41.601Z,39.30
2019-05-13T22:32:11.924Z,39.60
2019-05-13T22:34:42.770Z,39.40
2019-05-13T22:37:13.515Z,39.40
2019-05-13T22:39:44.244Z,39.40
2019-05-13T22:42:15.001Z,39.30
2019-05-13T22:44:45.710Z,39.90
2019-05-13T22:47:16.216Z,38.70
2019-05-13T22:49:46.949Z,38.70
2019-05-13T22:52:17.324Z,38.50
2019-05-13T22:54:47.701Z,38.50
2019-05-13T22:57:18.094Z,38.60
2019-05-13T22:59:48.807Z,38.50
2019-05-13T23:02:21.803Z,38.20
2019-05-13T23:04:51.533Z,38.10
2019-05-13T23:07:22.377Z,38.20
2019-05-13T23:09:53.197Z,38.20
2019-05-13T23:12:24.350Z,38.40
2019-05-13T23:14:54.694Z,38.70
2019-05-13T23:17:25.713Z,39.20
2019-05-13T23:19:56.836Z,39.20
2019-05-13T23:22:27.219Z,39.20
2019-05-13T23:24:58.335Z,39.10
2019-05-13T23:27:29.050Z,39.20
2019-05-13T23:30:01.218Z,39.60
2019-05-13T23:32:32.211Z,39.90
2019-05-13T23:35:02.882Z,39.90
2019-05-13T23:37:33.271Z,40.20
2019-05-13T23:40:07.548Z,40.30
2019-05-13T23:42:38.257Z,40.70
2019-05-13T23:45:11.277Z,40.80
2019-05-13T23:47:41.720Z,40.90
2019-05-13T23:50:12.601Z,40.50
2019-05-13T23:52:43.016Z,40.10
2019-05-13T23:55:13.789Z,40.70
2019-05-13T23:57:44.151Z,40.60
